Time;durP1;ratioP1;P1;durP2;ratioP2;P2;SDS_P1;SDS_P2;PMS_P1;PMS_P2;Temp;Humidity;BMP_temperature;BMP_pressure;BME280_temperature;BME280_humidity;BME280_pressure;Samples;Min_cycle;Max_cycle;Signal;HPM_P1;HPM_P2
2022/11/09 00:02:06;;;;;;;2.67;1.58;;;14.70;99.90;;;;;;5069372;28;20028;-37
2022/11/09 00:04:34;;;;;;;2.60;1.80;;;14.70;99.90;;;;;;5082842;28;20020;-42
2022/11/09 00:07:00;;;;;;;3.40;1.80;;;14.70;99.90;;;;;;5070269;28;20479;-39
2022/11/09 00:09:26;;;;;;;3.35;1.40;;;14.70;99.90;;;;;;5062534;28;20033;-40
2022/11/09 00:11:52;;;;;;;2.70;1.80;;;14.80;99.90;;;;;;5074081;28;20025;-41
2022/11/09 00:14:18;;;;;;;3.45;1.30;;;14.80;99.90;;;;;;5063276;28;20020;-39
2022/11/09 00:16:43;;;;;;;3.72;1.38;;;14.80;99.90;;;;;;5072714;28;20047;-40
2022/11/09 00:19:09;;;;;;;2.63;1.38;;;14.80;99.90;;;;;;5071590;28;20029;-39
2022/11/09 00:21:34;;;;;;;4.90;1.58;;;14.80;99.90;;;;;;5071230;28;20494;-40
2022/11/09 00:24:00;;;;;;;2.58;1.40;;;14.80;99.90;;;;;;5074478;28;20040;-41
2022/11/09 00:26:26;;;;;;;3.97;1.45;;;14.80;99.90;;;;;;5067782;28;20476;-41
2022/11/09 00:28:51;;;;;;;5.50;1.90;;;14.80;99.90;;;;;;5076682;28;20476;-40
2022/11/09 00:31:19;;;;;;;2.25;1.42;;;14.80;99.90;;;;;;5067439;28;20024;-38
2022/11/09 00:33:49;;;;;;;3.88;1.58;;;14.70;99.90;;;;;;5077669;28;20036;-39
2022/11/09 00:36:15;;;;;;;3.75;1.50;;;14.70;99.90;;;;;;5067199;28;20543;-40
2022/11/09 00:38:41;;;;;;;2.33;1.88;;;14.70;99.90;;;;;;5077748;28;20039;-40
2022/11/09 00:41:09;;;;;;;4.22;1.40;;;14.70;99.90;;;;;;5065807;28;20812;-40
2022/11/09 00:43:35;;;;;;;5.18;1.60;;;14.80;99.90;;;;;;5078631;28;20043;-40
2022/11/09 00:46:01;;;;;;;2.83;1.63;;;14.70;99.90;;;;;;5066607;28;20021;-41
2022/11/09 00:48:26;;;;;;;3.83;2.10;;;14.70;99.90;;;;;;5078435;28;20031;-41
2022/11/09 00:50:53;;;;;;;3.40;1.52;;;14.70;99.90;;;;;;5065925;28;20040;-40
2022/11/09 00:53:20;;;;;;;4.68;1.60;;;14.70;99.90;;;;;;5076688;28;20020;-41
2022/11/09 00:56:07;;;;;;;3.85;1.45;;;14.60;99.90;;;;;;5068345;28;20029;-42
2022/11/09 00:58:35;;;;;;;3.95;1.48;;;14.60;99.90;;;;;;5076744;28;20797;-39
2022/11/09 01:01:12;;;;;;;1.98;1.38;;;14.60;99.90;;;;;;5067715;28;20020;-40
2022/11/09 01:03:41;;;;;;;3.20;1.50;;;14.60;99.90;;;;;;5076193;28;20028;-40
2022/11/09 01:06:07;;;;;;;3.08;1.50;;;14.60;99.90;;;;;;5067165;28;20021;-39
2022/11/09 01:08:33;;;;;;;4.10;1.42;;;14.70;99.90;;;;;;5074410;28;20028;-41
2022/11/09 01:11:08;;;;;;;5.07;1.70;;;14.70;99.90;;;;;;5070048;28;20888;-39
2022/11/09 01:13:34;;;;;;;4.50;1.67;;;14.70;99.90;;;;;;5072012;28;20059;-40
2022/11/09 01:16:08;;;;;;;2.47;1.20;;;14.70;99.90;;;;;;5071533;28;20031;-41
2022/11/09 01:18:34;;;;;;;3.10;1.35;;;14.70;99.90;;;;;;5071546;28;20028;-40
2022/11/09 01:21:02;;;;;;;5.53;1.50;;;14.80;99.90;;;;;;5073291;28;20047;-39
2022/11/09 01:23:27;;;;;;;3.33;1.50;;;14.80;99.90;;;;;;5068611;28;20601;-40
2022/11/09 01:26:01;;;;;;;3.97;1.30;;;14.80;99.90;;;;;;5074769;28;20032;-41
2022/11/09 01:28:26;;;;;;;2.97;1.20;;;14.80;99.90;;;;;;5066673;28;20062;-40
2022/11/09 01:30:52;;;;;;;4.05;1.80;;;14.80;99.90;;;;;;5076715;28;20055;-40
2022/11/09 01:33:19;;;;;;;2.67;1.30;;;14.80;99.90;;;;;;5066635;28;20103;-40
2022/11/09 01:35:44;;;;;;;3.03;1.38;;;14.70;99.90;;;;;;5076776;28;20052;-41
2022/11/09 01:38:10;;;;;;;4.25;1.42;;;14.70;99.90;;;;;;5065108;28;20081;-41
2022/11/09 01:40:38;;;;;;;4.00;1.38;;;14.70;99.90;;;;;;5077857;28;20016;-41
2022/11/09 01:43:19;;;;;;;4.40;1.80;;;14.60;99.90;;;;;;5066183;28;20068;-41
2022/11/09 01:45:50;;;;;;;3.88;1.30;;;14.60;99.90;;;;;;5077728;28;20027;-38
2022/11/09 01:48:40;;;;;;;3.17;1.20;;;14.50;99.90;;;;;;5065046;28;20037;-37
2022/11/09 01:51:12;;;;;;;2.90;1.10;;;14.50;99.90;;;;;;5076862;28;20104;-40
2022/11/09 01:53:41;;;;;;;3.20;1.40;;;14.50;99.90;;;;;;5065676;28;20135;-41
2022/11/09 01:56:10;;;;;;;3.55;1.10;;;14.50;99.90;;;;;;5073253;28;20024;-39
2022/11/09 01:58:42;;;;;;;3.58;1.45;;;14.50;99.90;;;;;;5085818;28;20032;-39
2022/11/09 02:01:10;;;;;;;2.38;1.30;;;14.40;99.90;;;;;;5071966;28;20107;-40
2022/11/09 02:03:41;;;;;;;3.83;1.30;;;14.40;99.90;;;;;;5085617;28;20028;-39
2022/11/09 02:06:10;;;;;;;3.38;1.17;;;14.40;99.90;;;;;;5073401;28;20032;-39
2022/11/09 02:08:37;;;;;;;3.80;1.42;;;14.40;99.90;;;;;;5065082;28;20044;-39
2022/11/09 02:11:10;;;;;;;3.38;1.42;;;14.30;99.90;;;;;;5073235;28;20028;-39
2022/11/09 02:13:40;;;;;;;;;;;14.30;99.90;;;;;;5065380;28;20071;-40
2022/11/09 02:16:07;;;;;;;4.72;1.80;;;14.30;99.90;;;;;;5074629;28;19946;-41
2022/11/09 02:18:33;;;;;;;3.33;1.55;;;14.20;99.90;;;;;;5066986;28;20031;-39
2022/11/09 02:20:59;;;;;;;2.47;1.33;;;14.20;99.90;;;;;;5072892;28;20045;-39
2022/11/09 02:23:26;;;;;;;2.25;1.33;;;14.30;99.90;;;;;;5067444;28;20066;-40
2022/11/09 02:26:03;;;;;;;2.70;1.30;;;14.30;99.90;;;;;;5070276;28;20730;-39
2022/11/09 02:28:31;;;;;;;2.63;1.20;;;14.40;99.90;;;;;;5069453;28;20115;-38
2022/11/09 02:30:57;;;;;;;2.25;1.48;;;14.40;99.90;;;;;;5068416;28;20016;-42
2022/11/09 02:33:23;;;;;;;5.60;1.63;;;14.50;99.90;;;;;;5071328;28;20033;-37
2022/11/09 02:35:51;;;;;;;3.80;1.58;;;14.50;99.90;;;;;;5066506;28;20121;-38
2022/11/09 02:38:17;;;;;;;5.13;1.23;;;14.50;99.90;;;;;;5072604;28;20035;-37
2022/11/09 02:40:47;;;;;;;3.78;1.80;;;14.60;99.90;;;;;;5065406;28;20024;-40
2022/11/09 02:43:16;;;;;;;2.88;1.60;;;14.50;99.90;;;;;;5074146;28;20094;-40
2022/11/09 02:45:42;;;;;;;2.33;1.50;;;14.60;99.90;;;;;;5065172;28;20483;-40
2022/11/09 02:48:07;;;;;;;3.17;1.77;;;14.60;99.90;;;;;;5074498;28;20032;-40
2022/11/09 02:50:35;;;;;;;5.28;1.77;;;14.50;99.90;;;;;;5063804;28;20028;-39
2022/11/09 02:53:03;;;;;;;2.75;1.45;;;14.50;99.90;;;;;;5076774;28;20028;-39
2022/11/09 02:55:28;;;;;;;3.88;1.50;;;14.40;99.90;;;;;;5063568;28;20020;-40
2022/11/09 02:57:54;;;;;;;3.45;1.50;;;14.40;99.90;;;;;;5076375;28;20078;-39
2022/11/09 03:00:19;;;;;;;3.97;1.45;;;14.40;99.90;;;;;;5063852;28;20075;-43
2022/11/09 03:02:45;;;;;;;2.13;1.20;;;14.40;99.90;;;;;;5075487;28;20032;-40
2022/11/09 03:05:11;;;;;;;3.38;1.50;;;14.40;99.90;;;;;;5063889;28;20027;-39
2022/11/09 03:07:39;;;;;;;3.25;1.73;;;14.30;99.90;;;;;;5072024;28;20586;-40
2022/11/09 03:10:05;;;;;;;2.13;1.35;;;14.30;99.90;;;;;;5067496;28;20028;-39
2022/11/09 03:12:30;;;;;;;2.65;1.05;;;14.30;99.90;;;;;;5071460;28;20066;-41
2022/11/09 03:14:58;;;;;;;3.00;1.13;;;14.30;99.90;;;;;;5077682;28;20036;-40
2022/11/09 03:17:24;;;;;;;3.42;1.50;;;14.30;99.90;;;;;;5078695;28;20395;-38
2022/11/09 03:19:50;;;;;;;2.13;1.10;;;14.30;99.90;;;;;;5075040;28;20039;-41
2022/11/09 03:22:16;;;;;;;2.55;1.20;;;14.30;99.90;;;;;;5081015;28;20028;-39
2022/11/09 03:24:41;;;;;;;3.05;1.60;;;14.30;99.90;;;;;;5072602;28;20807;-38
2022/11/09 03:27:07;;;;;;;2.65;1.27;;;14.30;99.90;;;;;;5081264;28;20443;-40
2022/11/09 03:29:32;;;;;;;4.20;1.40;;;14.30;99.90;;;;;;5072397;28;20031;-40
2022/11/09 03:31:58;;;;;;;5.22;1.52;;;14.30;99.90;;;;;;5083782;28;20042;-38
2022/11/09 03:34:24;;;;;;;2.90;1.15;;;14.30;99.90;;;;;;5069737;28;20032;-40
2022/11/09 03:36:49;;;;;;;3.20;1.25;;;14.30;99.90;;;;;;5083370;28;20046;-40
2022/11/09 03:39:15;;;;;;;4.47;1.30;;;14.30;99.90;;;;;;5069896;28;20070;-40
2022/11/09 03:41:40;;;;;;;1.83;0.95;;;14.30;99.90;;;;;;5083349;28;20046;-40
2022/11/09 03:44:06;;;;;;;2.85;1.10;;;14.30;99.90;;;;;;5071381;28;20554;-40
2022/11/09 03:46:31;;;;;;;3.60;1.42;;;14.20;99.90;;;;;;5081477;28;20550;-39
2022/11/09 03:48:57;;;;;;;3.53;1.35;;;14.20;99.90;;;;;;5073828;28;20279;-39
2022/11/09 03:51:22;;;;;;;3.90;1.50;;;14.20;99.90;;;;;;5079011;28;20032;-37
2022/11/09 03:53:48;;;;;;;3.90;1.42;;;14.10;99.90;;;;;;5076866;28;20029;-40
2022/11/09 03:56:14;;;;;;;4.60;1.70;;;14.10;99.90;;;;;;5076459;28;20063;-40
2022/11/09 03:58:39;;;;;;;5.13;1.38;;;14.10;99.90;;;;;;5079843;28;20054;-41
2022/11/09 04:01:05;;;;;;;5.13;1.60;;;14.10;99.90;;;;;;5073392;28;20118;-40
2022/11/09 04:03:30;;;;;;;2.78;1.20;;;14.00;99.90;;;;;;5081609;28;20110;-39
2022/11/09 04:05:58;;;;;;;2.33;1.02;;;14.00;99.90;;;;;;5071492;28;20064;-38
2022/11/09 04:08:23;;;;;;;3.38;1.27;;;13.90;99.90;;;;;;5080392;28;20032;-41
2022/11/09 04:10:48;;;;;;;5.15;1.60;;;13.80;99.90;;;;;;5072342;28;20027;-40
2022/11/09 04:13:14;;;;;;;5.97;1.55;;;13.80;99.90;;;;;;5082620;28;20054;-41
2022/11/09 04:15:40;;;;;;;2.25;1.40;;;13.70;99.90;;;;;;5070182;28;20020;-41
2022/11/09 04:18:09;;;;;;;7.00;1.70;;;13.70;99.90;;;;;;5082880;28;20067;-42
2022/11/09 04:20:34;;;;;;;5.13;1.77;;;13.70;99.90;;;;;;5069628;28;20024;-37
2022/11/09 04:23:03;;;;;;;4.80;1.50;;;13.70;99.90;;;;;;5082662;28;20379;-40
2022/11/09 04:25:32;;;;;;;6.50;1.50;;;13.60;99.90;;;;;;5071350;28;20116;-40
2022/11/09 04:27:58;;;;;;;3.67;1.33;;;13.60;99.90;;;;;;5082282;28;20028;-39
2022/11/09 04:30:29;;;;;;;3.30;1.20;;;13.60;99.90;;;;;;5073352;28;21071;-41
2022/11/09 04:32:58;;;;;;;5.30;1.80;;;13.50;99.90;;;;;;5079982;28;20032;-40
2022/11/09 04:35:25;;;;;;;4.80;1.48;;;13.50;99.90;;;;;;5074273;28;20041;-41
2022/11/09 04:38:00;;;;;;;3.72;1.30;;;13.50;99.90;;;;;;5077569;28;20089;-40
2022/11/09 04:40:30;;;;;;;4.03;1.35;;;13.50;99.90;;;;;;5075647;28;20582;-40
2022/11/09 04:42:59;;;;;;;5.55;1.33;;;13.50;99.90;;;;;;5077150;28;20039;-39
2022/11/09 04:45:24;;;;;;;3.88;1.30;;;13.50;99.90;;;;;;5077181;28;20048;-40
2022/11/09 04:47:50;;;;;;;4.30;1.33;;;13.50;99.90;;;;;;5075206;28;20024;-41
2022/11/09 04:50:15;;;;;;;3.70;1.38;;;13.50;99.90;;;;;;5079570;28;20020;-38
2022/11/09 04:52:41;;;;;;;3.55;1.42;;;13.60;99.90;;;;;;5072638;28;20042;-38
2022/11/09 04:55:07;;;;;;;4.20;1.23;;;13.60;99.90;;;;;;5080743;28;20654;-40
2022/11/09 04:57:33;;;;;;;3.63;1.05;;;13.60;99.90;;;;;;5070723;28;20063;-39
2022/11/09 04:59:58;;;;;;;3.22;1.27;;;13.60;99.90;;;;;;5082377;28;20039;-36
2022/11/09 05:02:24;;;;;;;5.53;1.55;;;13.60;99.90;;;;;;5073556;28;20039;-37
2022/11/09 05:04:52;;;;;;;6.20;1.30;;;13.60;99.90;;;;;;5086245;28;20068;-37
2022/11/09 05:07:17;;;;;;;4.82;1.50;;;13.50;99.90;;;;;;5072863;28;20093;-40
2022/11/09 05:09:43;;;;;;;4.32;1.20;;;13.50;99.90;;;;;;5085500;28;20507;-39
2022/11/09 05:12:10;;;;;;;5.18;1.42;;;13.50;99.90;;;;;;5072872;28;20658;-40
2022/11/09 05:14:36;;;;;;;5.28;1.45;;;13.40;99.90;;;;;;5086130;28;20110;-41
2022/11/09 05:17:07;;;;;;;3.22;1.27;;;13.40;99.90;;;;;;5076350;28;20048;-41
2022/11/09 05:19:33;;;;;;;3.28;1.13;;;13.40;99.90;;;;;;5083912;28;20455;-40
2022/11/09 05:23:57;;;;;;;3.33;1.30;;;13.30;99.90;;;;;;5077724;28;20585;-39
2022/11/09 05:24:44;;;;;;;3.72;1.30;;;13.30;99.90;;;;;;5083767;28;20036;-39
2022/11/09 05:27:09;;;;;;;5.93;1.58;;;13.30;99.90;;;;;;5077329;28;20023;-39
2022/11/09 05:29:35;;;;;;;5.82;1.50;;;13.30;99.90;;;;;;5081557;28;20097;-40
2022/11/09 05:32:00;;;;;;;4.75;1.60;;;13.30;99.90;;;;;;5080512;28;20056;-40
2022/11/09 05:34:26;;;;;;;5.65;2.13;;;13.30;99.90;;;;;;5077858;28;20032;-37
2022/11/09 05:36:51;;;;;;;3.35;1.20;;;13.20;99.90;;;;;;5082975;28;20769;-41
2022/11/09 05:39:17;;;;;;;3.00;1.08;;;13.20;99.90;;;;;;5074647;28;20398;-37
2022/11/09 05:41:42;;;;;;;5.30;1.40;;;13.20;99.90;;;;;;5083961;28;20028;-35
2022/11/09 05:44:08;;;;;;;4.60;1.10;;;13.20;99.90;;;;;;5073438;28;20043;-40
2022/11/09 05:46:33;;;;;;;6.28;1.63;;;13.20;99.90;;;;;;5083920;28;20127;-40
2022/11/09 05:48:59;;;;;;;7.68;1.60;;;13.10;99.90;;;;;;5073427;28;20020;-41
2022/11/09 05:51:25;;;;;;;5.38;1.63;;;13.10;99.90;;;;;;5084760;28;20047;-39
2022/11/09 05:53:51;;;;;;;6.10;1.60;;;13.10;99.90;;;;;;5072421;28;20028;-40
2022/11/09 05:56:16;;;;;;;5.30;1.58;;;13.00;99.90;;;;;;5085192;28;20554;-39
2022/11/09 05:58:42;;;;;;;6.93;1.33;;;13.00;99.90;;;;;;5072772;28;20032;-40
2022/11/09 06:01:14;;;;;;;4.35;1.30;;;12.90;99.90;;;;;;5083883;28;20552;-40
2022/11/09 06:03:42;;;;;;;4.20;1.30;;;12.90;99.90;;;;;;5074481;28;20040;-41
2022/11/09 06:06:11;;;;;;;6.32;2.55;;;12.90;99.90;;;;;;5082698;28;20039;-40
2022/11/09 06:08:36;;;;;;;3.28;1.33;;;12.90;99.90;;;;;;5076172;28;20039;-40
2022/11/09 06:11:05;;;;;;;3.05;1.23;;;12.90;99.90;;;;;;5080473;28;20028;-39
2022/11/09 06:13:31;;;;;;;3.60;1.33;;;12.90;99.90;;;;;;5077158;28;20024;-39
2022/11/09 06:15:59;;;;;;;4.53;1.23;;;12.90;99.90;;;;;;5078504;28;20043;-39
2022/11/09 06:18:27;;;;;;;5.05;1.30;;;12.80;99.90;;;;;;5079850;28;20387;-39
2022/11/09 06:21:01;;;;;;;5.15;1.20;;;12.80;99.90;;;;;;5076475;28;20024;-40
2022/11/09 06:23:28;;;;;;;6.28;1.50;;;12.80;99.90;;;;;;5081853;28;20159;-39
2022/11/09 06:25:58;;;;;;;4.50;1.30;;;12.80;99.90;;;;;;5075076;28;20028;-40
2022/11/09 06:28:27;;;;;;;6.75;1.73;;;12.80;99.90;;;;;;5082154;28;20092;-39
2022/11/09 06:30:55;;;;;;;3.67;1.40;;;12.70;99.90;;;;;;5073802;28;20063;-39
2022/11/09 06:33:21;;;;;;;5.38;1.90;;;12.70;99.90;;;;;;5082244;28;20020;-39
2022/11/09 06:35:46;;;;;;;7.70;1.85;;;12.60;99.90;;;;;;5072868;28;20052;-42
2022/11/09 06:38:12;;;;;;;4.70;1.50;;;12.60;99.90;;;;;;5083691;28;20050;-39
2022/11/09 06:40:38;;;;;;;4.05;1.60;;;12.60;99.90;;;;;;5071785;28;20092;-39
2022/11/09 06:43:03;;;;;;;4.93;1.50;;;12.60;99.90;;;;;;5084520;28;20061;-40
2022/11/09 06:45:29;;;;;;;4.05;1.30;;;12.60;99.90;;;;;;5070818;28;20042;-41
2022/11/09 06:48:00;;;;;;;5.30;1.38;;;12.60;99.90;;;;;;5085007;28;20027;-40
2022/11/09 06:50:27;;;;;;;5.15;1.73;;;12.60;99.90;;;;;;5079431;28;20016;-39
2022/11/09 06:53:04;;;;;;;5.97;1.40;;;12.60;99.90;;;;;;5074190;28;20107;-41
2022/11/09 06:55:31;;;;;;;4.72;1.38;;;12.60;99.90;;;;;;5075004;28;20129;-41
2022/11/09 06:58:00;;;;;;;7.35;1.60;;;12.60;99.90;;;;;;5079271;28;20020;-40
2022/11/09 07:00:26;;;;;;;5.35;1.83;;;12.60;99.90;;;;;;5080376;28;20128;-41
2022/11/09 07:02:52;;;;;;;3.80;1.10;;;12.60;99.90;;;;;;5081413;28;20024;-41
2022/11/09 07:05:18;;;;;;;5.75;1.33;;;12.60;99.90;;;;;;5077610;28;20057;-41
2022/11/09 07:07:44;;;;;;;5.53;2.15;;;12.50;99.90;;;;;;5081011;28;20506;-41
2022/11/09 07:10:10;;;;;;;3.15;1.58;;;12.60;99.90;;;;;;5080339;28;20029;-41
2022/11/09 07:12:36;;;;;;;3.65;1.30;;;12.60;99.90;;;;;;5080135;28;20020;-41
2022/11/09 07:15:03;;;;;;;7.25;1.73;;;12.60;99.90;;;;;;5081677;28;20535;-40
2022/11/09 07:17:30;;;;;;;8.35;1.70;;;12.60;99.90;;;;;;5076095;28;20604;-40
2022/11/09 07:19:56;;;;;;;5.55;1.63;;;12.60;99.90;;;;;;5082507;28;20110;-41
2022/11/09 07:22:21;;;;;;;5.50;1.50;;;12.60;99.90;;;;;;5078298;28;20387;-41
2022/11/09 07:24:47;;;;;;;4.93;1.48;;;12.60;99.90;;;;;;5082688;28;20023;-41
2022/11/09 07:27:12;;;;;;;6.38;1.60;;;12.60;99.90;;;;;;5073164;28;20024;-41
2022/11/09 07:29:38;;;;;;;4.25;1.48;;;12.60;99.90;;;;;;5079122;28;20035;-41
2022/11/09 07:32:04;;;;;;;7.30;1.55;;;12.60;99.90;;;;;;5077692;28;20035;-41
2022/11/09 07:34:29;;;;;;;6.68;1.70;;;12.60;99.90;;;;;;5080054;28;20031;-40
2022/11/09 07:36:55;;;;;;;3.33;1.20;;;12.60;99.90;;;;;;5077483;28;20565;-40
2022/11/09 07:39:27;;;;;;;5.35;1.83;;;12.60;99.90;;;;;;5076286;28;20540;-40
2022/11/09 07:41:54;;;;;;;5.17;1.97;;;12.60;99.90;;;;;;5075968;28;20027;-40
2022/11/09 07:44:22;;;;;;;8.07;1.63;;;12.60;99.90;;;;;;5079720;28;20301;-41
2022/11/09 07:46:48;;;;;;;5.50;1.95;;;12.70;99.90;;;;;;5078028;28;20479;-41
2022/11/09 07:49:15;;;;;;;5.78;1.75;;;12.70;99.90;;;;;;5079427;28;20035;-40
2022/11/09 07:51:41;;;;;;;3.50;1.52;;;12.70;99.90;;;;;;5078342;28;20016;-40
2022/11/09 07:54:07;;;;;;;5.30;1.30;;;12.70;99.90;;;;;;5079470;28;20034;-41
2022/11/09 07:56:33;;;;;;;6.35;2.00;;;12.80;99.90;;;;;;5079627;28;20031;-41
2022/11/09 07:58:58;;;;;;;6.90;1.77;;;12.80;99.90;;;;;;5078325;28;20032;-41
2022/11/09 08:01:24;;;;;;;4.35;1.67;;;12.80;99.90;;;;;;5080253;28;21258;-40
2022/11/09 08:03:53;;;;;;;4.55;1.60;;;12.80;99.90;;;;;;5075275;28;20038;-40
2022/11/09 08:06:19;;;;;;;3.88;1.38;;;12.80;99.90;;;;;;5081238;28;20020;-41
2022/11/09 08:08:45;;;;;;;6.07;1.88;;;12.80;99.90;;;;;;5075669;28;20028;-41
2022/11/09 08:11:10;;;;;;;6.90;2.03;;;12.90;99.90;;;;;;5080516;28;20020;-40
2022/11/09 08:13:36;;;;;;;5.95;1.77;;;12.90;99.90;;;;;;5075732;28;20036;-41
2022/11/09 08:16:02;;;;;;;5.35;1.60;;;12.90;99.90;;;;;;5080877;28;20028;-39
2022/11/09 08:18:28;;;;;;;5.97;1.70;;;12.90;99.90;;;;;;5077515;28;20028;-40
2022/11/09 08:20:53;;;;;;;5.25;1.50;;;13.00;99.90;;;;;;5079404;28;20116;-40
2022/11/09 08:23:22;;;;;;;6.57;2.08;;;13.00;99.90;;;;;;5076277;28;20842;-40
2022/11/09 08:25:49;;;;;;;7.22;1.73;;;13.00;99.90;;;;;;5079433;28;20054;-40
2022/11/09 08:28:15;;;;;;;6.25;1.70;;;13.00;99.90;;;;;;5077098;28;20699;-39
2022/11/09 08:30:42;;;;;;;4.30;1.45;;;13.10;99.90;;;;;;5079438;28;20031;-41
2022/11/09 08:33:08;;;;;;;5.78;1.65;;;13.10;99.90;;;;;;5076036;28;20093;-40
2022/11/09 08:35:33;;;;;;;5.75;1.60;;;13.10;99.90;;;;;;5079960;28;20488;-40
2022/11/09 08:38:02;;;;;;;4.97;1.77;;;13.10;99.90;;;;;;5084571;28;20059;-40
2022/11/09 08:40:28;;;;;;;3.78;1.60;;;13.10;99.90;;;;;;5078529;28;20032;-40
2022/11/09 08:42:53;;;;;;;7.13;2.20;;;13.20;99.90;;;;;;5082048;28;20039;-41
2022/11/09 08:45:20;;;;;;;7.22;1.77;;;13.20;99.90;;;;;;5077260;28;20032;-41
2022/11/09 08:47:46;;;;;;;6.38;1.70;;;13.20;99.90;;;;;;5068024;28;20039;-40
2022/11/09 08:50:15;;;;;;;6.45;1.60;;;13.30;99.90;;;;;;5076921;28;20020;-38
2022/11/09 08:52:41;;;;;;;5.82;1.80;;;13.30;99.90;;;;;;5065625;28;20111;-40
2022/11/09 08:55:07;;;;;;;3.97;1.38;;;13.40;99.90;;;;;;5073732;28;20153;-41
2022/11/09 08:57:33;;;;;;;5.72;1.40;;;13.40;99.90;;;;;;5086430;28;20043;-40
2022/11/09 08:59:58;;;;;;;15.02;2.10;;;13.40;99.90;;;;;;5073115;28;20024;-44
2022/11/09 09:02:24;;;;;;;5.60;1.77;;;13.50;99.90;;;;;;5085890;28;20369;-39
2022/11/09 09:04:49;;;;;;;5.60;1.80;;;13.60;99.90;;;;;;5074017;28;20089;-39
2022/11/09 09:07:15;;;;;;;6.00;2.83;;;13.70;99.90;;;;;;5083749;28;20047;-41
2022/11/09 09:09:41;;;;;;;6.40;2.10;;;13.80;99.90;;;;;;5076950;28;20036;-40
2022/11/09 09:12:07;;;;;;;6.13;1.85;;;14.00;99.90;;;;;;5080948;28;20028;-41
2022/11/09 09:14:34;;;;;;;4.95;1.65;;;14.00;99.90;;;;;;5078430;28;20541;-41
2022/11/09 09:17:00;;;;;;;5.60;1.90;;;14.10;99.90;;;;;;5079058;28;20024;-40
2022/11/09 09:19:25;;;;;;;7.45;2.13;;;14.20;99.90;;;;;;5081941;28;20008;-41
2022/11/09 09:21:51;;;;;;;7.45;2.45;;;14.20;99.90;;;;;;5075298;28;20039;-40
2022/11/09 09:24:16;;;;;;;8.10;1.98;;;14.30;99.90;;;;;;5083882;28;20036;-41
2022/11/09 09:26:43;;;;;;;5.00;1.40;;;14.30;99.90;;;;;;5075119;28;20024;-39
2022/11/09 09:29:10;;;;;;;4.45;1.80;;;14.40;99.90;;;;;;5083584;28;20062;-40
2022/11/09 09:31:36;;;;;;;4.82;1.65;;;14.40;99.90;;;;;;5074057;28;20476;-39
2022/11/09 09:34:02;;;;;;;4.55;1.52;;;14.40;99.90;;;;;;5085190;28;20055;-41
2022/11/09 09:36:28;;;;;;;6.28;2.03;;;14.30;99.90;;;;;;5072100;28;20058;-41
2022/11/09 09:38:53;;;;;;;6.80;1.60;;;14.20;99.90;;;;;;5085516;28;20020;-41
2022/11/09 09:41:37;;;;;;;8.75;2.28;;;14.20;99.90;;;;;;5072658;28;20112;-41
2022/11/09 09:44:19;;;;;;;6.40;2.05;;;14.20;99.90;;;;;;5086218;28;20048;-41
2022/11/09 09:47:26;;;;;;;7.75;2.20;;;14.20;99.90;;;;;;5071822;28;20032;-41
2022/11/09 09:49:59;;;;;;;5.90;1.75;;;14.20;99.90;;;;;;5046766;28;20079;-42
2022/11/09 09:52:43;;;;;;;4.30;1.55;;;14.20;99.90;;;;;;5073051;28;20470;-41
2022/11/09 09:55:23;;;;;;;6.78;1.90;;;14.20;99.90;;;;;;5083877;28;20514;-41
2022/11/09 09:57:55;;;;;;;5.43;1.73;;;14.20;99.90;;;;;;5074796;28;20030;-40
2022/11/09 10:00:24;;;;;;;6.78;1.85;;;14.20;99.90;;;;;;5083271;28;20039;-40
2022/11/09 10:02:51;;;;;;;5.78;1.70;;;14.30;99.90;;;;;;5073891;28;20451;-40
2022/11/09 10:05:19;;;;;;;8.02;2.00;;;14.30;99.90;;;;;;5083241;28;20066;-41
2022/11/09 10:08:07;;;;;;;9.13;1.95;;;14.30;99.90;;;;;;5074062;28;20023;-40
2022/11/09 10:10:43;;;;;;;5.85;1.60;;;14.30;99.90;;;;;;5083872;28;20029;-40
2022/11/09 10:13:35;;;;;;;7.63;1.83;;;14.40;99.90;;;;;;5072639;28;20031;-41
2022/11/09 10:16:30;;;;;;;5.82;1.48;;;14.50;99.90;;;;;;5083246;28;20038;-41
2022/11/09 10:19:20;;;;;;;5.53;1.58;;;14.60;99.90;;;;;;5054672;28;20550;-41
2022/11/09 10:22:04;;;;;;;6.30;1.65;;;14.60;99.90;;;;;;5078566;28;20476;-41
2022/11/09 10:24:30;;;;;;;3.60;1.20;;;14.70;99.90;;;;;;5080166;28;20039;-41
2022/11/09 10:26:57;;;;;;;6.47;1.38;;;14.70;99.90;;;;;;5078621;28;20066;-40
2022/11/09 10:29:37;;;;;;;4.65;1.23;;;14.80;99.90;;;;;;5077652;28;20044;-40
2022/11/09 10:32:14;;;;;;;4.80;1.23;;;14.90;99.90;;;;;;5078922;28;20048;-40
2022/11/09 10:35:12;;;;;;;7.18;1.98;;;15.00;99.90;;;;;;5078134;28;20044;-40
2022/11/09 10:37:43;;;;;;;6.50;1.70;;;15.10;99.90;;;;;;5075889;28;20040;-43
2022/11/09 10:40:11;;;;;;;5.30;1.50;;;15.10;99.90;;;;;;5080976;28;20032;-39
2022/11/09 10:42:37;;;;;;;8.30;2.05;;;15.20;99.90;;;;;;5076899;28;20094;-41
2022/11/09 10:45:23;;;;;;;6.93;1.98;;;15.20;99.90;;;;;;5079526;28;21260;-41
2022/11/09 10:47:50;;;;;;;5.80;2.03;;;15.30;99.90;;;;;;5076996;28;20351;-41
2022/11/09 10:50:44;;;;;;;6.60;1.58;;;15.30;99.90;;;;;;5078254;28;20085;-39
2022/11/09 10:53:26;;;;;;;6.05;1.75;;;15.30;99.90;;;;;;5074474;28;20060;-41
2022/11/09 10:55:56;;;;;;;5.97;1.42;;;15.40;99.90;;;;;;5082700;28;20024;-40
2022/11/09 10:58:35;;;;;;;4.90;1.38;;;15.30;99.90;;;;;;5073597;28;20077;-41
2022/11/09 11:01:02;;;;;;;5.93;1.70;;;15.40;99.90;;;;;;5083091;28;20020;-40
2022/11/09 11:03:31;;;;;;;3.03;1.40;;;15.30;99.90;;;;;;5074582;28;20036;-40
2022/11/09 11:05:59;;;;;;;4.28;1.55;;;15.40;99.90;;;;;;5079742;28;20459;-40
2022/11/09 11:08:30;;;;;;;5.25;1.60;;;15.30;99.90;;;;;;5076660;28;20086;-38
2022/11/09 11:11:29;;;;;;;6.70;1.90;;;15.30;99.90;;;;;;5078666;28;20026;-39
2022/11/09 11:14:16;;;;;;;7.65;1.73;;;15.30;99.90;;;;;;5074449;28;20028;-40
2022/11/09 11:16:43;;;;;;;6.38;1.90;;;15.20;99.90;;;;;;5083878;28;20017;-40
2022/11/09 11:19:40;;;;;;;5.63;1.50;;;15.20;99.90;;;;;;5074124;28;20038;-40
2022/11/09 11:22:11;;;;;;;5.82;1.70;;;15.20;99.90;;;;;;5043679;28;20143;-40
2022/11/09 11:24:59;;;;;;;5.68;1.85;;;15.20;99.90;;;;;;5075068;28;20078;-40
2022/11/09 11:27:52;;;;;;;4.82;1.45;;;15.20;99.90;;;;;;5063583;28;20054;-41
2022/11/09 11:30:46;;;;;;;;;;;15.10;99.90;;;;;;5071695;28;20027;-39
2022/11/09 11:33:14;;;;;;;4.22;1.42;;;15.00;99.90;;;;;;5059344;28;19915;-43
2022/11/09 11:35:56;;;;;;;4.93;1.30;;;14.90;99.90;;;;;;5071794;28;20043;-41
2022/11/09 11:38:26;;;;;;;7.20;1.95;;;14.90;99.90;;;;;;5081274;28;20066;-40
2022/11/09 11:41:13;;;;;;;5.25;1.65;;;15.00;99.90;;;;;;5072012;28;20795;-40
2022/11/09 11:43:53;;;;;;;5.57;1.67;;;15.10;99.90;;;;;;5082025;28;20097;-40
2022/11/09 11:46:44;;;;;;;3.38;1.52;;;15.20;99.90;;;;;;5071518;28;20099;-41
2022/11/09 11:49:31;;;;;;;7.53;1.98;;;15.20;99.90;;;;;;5081971;28;20023;-40
2022/11/09 11:52:09;;;;;;;4.55;1.33;;;15.30;99.90;;;;;;5074825;28;20024;-41
2022/11/09 11:55:06;;;;;;;4.93;1.52;;;15.30;99.90;;;;;;5079631;28;20624;-40
2022/11/09 11:57:43;;;;;;;4.95;1.23;;;15.40;99.90;;;;;;5043537;28;20055;-40
2022/11/09 12:00:15;;;;;;;7.18;1.60;;;15.40;99.90;;;;;;5075830;28;20025;-40
2022/11/09 12:03:25;;;;;;;5.03;1.57;;;15.40;99.90;;;;;;5078137;28;20039;-39
2022/11/09 12:06:12;;;;;;;4.18;1.50;;;15.40;99.90;;;;;;5025717;28;20032;-39
2022/11/09 12:09:01;;;;;;;4.78;1.42;;;15.40;99.90;;;;;;5063061;28;20060;-38
2022/11/09 12:11:51;;;;;;;3.17;1.10;;;15.40;99.90;;;;;;5068838;28;20083;-41
2022/11/09 12:14:29;;;;;;;4.40;1.60;;;15.30;99.90;;;;;;5061943;28;20040;-41
2022/11/09 12:17:06;;;;;;;4.22;1.25;;;15.40;99.90;;;;;;5069749;28;20028;-41
2022/11/09 12:19:57;;;;;;;4.90;1.45;;;15.40;99.90;;;;;;5083342;28;20047;-40
2022/11/09 12:22:40;;;;;;;6.22;1.48;;;15.40;99.90;;;;;;5073922;28;20023;-40
2022/11/09 12:25:11;;;;;;;4.07;1.30;;;15.50;99.90;;;;;;5064488;28;20048;-41
2022/11/09 12:27:59;;;;;;;6.33;1.60;;;15.50;99.90;;;;;;5073679;28;20029;-40
2022/11/09 12:30:47;;;;;;;4.65;1.40;;;15.40;99.90;;;;;;5063444;28;20016;-40
2022/11/09 12:33:46;;;;;;;4.40;1.42;;;15.40;99.90;;;;;;5056943;28;20024;-41
2022/11/09 12:36:24;;;;;;;5.90;1.40;;;15.40;99.90;;;;;;5058658;28;20132;-42
2022/11/09 12:39:20;;;;;;;4.40;1.25;;;15.40;99.90;;;;;;5077268;28;20025;-41
2022/11/09 12:41:48;;;;;;;3.05;1.23;;;15.40;99.90;;;;;;5073555;28;20035;-41
2022/11/09 12:44:19;;;;;;;6.00;1.40;;;15.40;99.90;;;;;;5078307;28;20043;-42
2022/11/09 12:47:20;;;;;;;5.43;1.65;;;15.40;99.90;;;;;;5076150;28;20025;-42
2022/11/09 12:49:46;;;;;;;4.22;1.40;;;15.50;99.90;;;;;;5060223;28;20054;-40
2022/11/09 12:52:19;;;;;;;4.70;1.20;;;15.40;99.90;;;;;;5072376;28;20024;-37
2022/11/09 12:54:47;;;;;;;4.10;1.48;;;15.40;99.90;;;;;;5080823;28;20466;-38
2022/11/09 12:57:24;;;;;;;4.75;1.50;;;15.30;99.90;;;;;;5073576;28;20518;-40
2022/11/09 12:59:55;;;;;;;4.43;1.60;;;15.30;99.90;;;;;;5079448;28;20108;-40
2022/11/09 13:02:34;;;;;;;5.35;1.50;;;15.30;99.90;;;;;;5074101;28;20025;-40
2022/11/09 13:05:06;;;;;;;3.60;1.42;;;15.20;99.90;;;;;;5079354;28;20068;-38